createdAt,value
2023-03-18T00:01:15.847Z,38.02
2023-03-18T00:03:45.392Z,37.78
2023-03-18T00:06:17.913Z,37.63
2023-03-18T00:08:48.456Z,37.66
2023-03-18T00:11:20.796Z,37.65
2023-03-18T00:13:49.915Z,37.64
2023-03-18T00:16:20.715Z,37.50
2023-03-18T00:18:49.968Z,37.58
2023-03-18T00:21:18.810Z,37.51
2023-03-18T00:23:50.077Z,37.53
2023-03-18T00:26:18.968Z,37.37
2023-03-18T00:28:48.054Z,37.44
2023-03-18T00:31:17.080Z,37.26
2023-03-18T00:33:47.378Z,37.09
2023-03-18T00:36:17.928Z,37.16
2023-03-18T00:38:50.509Z,36.97
2023-03-18T00:41:19.667Z,37.11
2023-03-18T00:43:53.410Z,37.05
2023-03-18T00:46:24.513Z,37.12
2023-03-18T00:48:56.412Z,37.18
2023-03-18T00:51:28.017Z,36.90
2023-03-18T00:53:58.600Z,37.10
2023-03-18T00:56:30.346Z,37.07
2023-03-18T00:58:59.555Z,36.89
2023-03-18T01:01:29.670Z,36.87
2023-03-18T01:03:59.503Z,36.65
2023-03-18T01:06:30.192Z,36.89
2023-03-18T01:09:00.849Z,36.74
2023-03-18T01:11:30.458Z,36.99
2023-03-18T01:14:00.088Z,36.79
2023-03-18T01:16:29.710Z,36.82
2023-03-18T01:19:00.031Z,36.91
2023-03-18T01:21:29.071Z,36.83
2023-03-18T01:23:59.930Z,36.85
2023-03-18T01:26:28.950Z,36.63
2023-03-18T01:28:57.950Z,36.87
2023-03-18T01:31:27.152Z,36.93
2023-03-18T01:33:56.280Z,36.79
2023-03-18T01:36:25.249Z,36.84
2023-03-18T01:38:54.129Z,36.71
2023-03-18T01:41:23.675Z,36.62
2023-03-18T01:43:54.126Z,36.54
2023-03-18T01:46:40.913Z,36.63
2023-03-18T01:49:15.269Z,36.74
2023-03-18T01:51:47.150Z,36.73
2023-03-18T01:54:16.991Z,36.69
2023-03-18T01:56:48.382Z,36.71
2023-03-18T01:59:18.565Z,36.54
2023-03-18T02:01:53.053Z,36.69
2023-03-18T02:04:25.640Z,36.59
2023-03-18T02:06:54.730Z,36.41
2023-03-18T02:09:23.698Z,36.54
2023-03-18T02:11:52.889Z,36.41
2023-03-18T02:14:26.078Z,36.59
2023-03-18T02:17:00.636Z,36.48
2023-03-18T02:19:45.300Z,36.48
2023-03-18T02:22:24.104Z,36.35
2023-03-18T02:25:01.000Z,36.43
2023-03-18T02:27:33.443Z,36.65
2023-03-18T02:30:08.006Z,36.60
2023-03-18T02:32:38.381Z,36.65
2023-03-18T02:35:11.055Z,36.50
2023-03-18T02:37:40.282Z,36.62
2023-03-18T02:40:18.293Z,36.54
2023-03-18T02:42:48.354Z,36.36
2023-03-18T02:45:31.002Z,36.41
2023-03-18T02:48:02.811Z,36.64
2023-03-18T02:50:32.033Z,36.43
2023-03-18T02:53:03.378Z,36.74
2023-03-18T02:55:32.310Z,36.86
2023-03-18T02:58:01.484Z,36.59
2023-03-18T03:00:31.065Z,36.66
2023-03-18T03:03:01.261Z,36.92
2023-03-18T03:05:30.715Z,36.92
2023-03-18T03:07:59.782Z,37.10
2023-03-18T03:10:28.801Z,37.00
2023-03-18T03:12:58.255Z,37.45
2023-03-18T03:15:27.929Z,37.32
2023-03-18T03:17:56.920Z,37.49
2023-03-18T03:20:26.032Z,37.54
2023-03-18T03:22:55.117Z,37.41
2023-03-18T03:25:26.513Z,37.49
2023-03-18T03:27:55.482Z,37.51
2023-03-18T03:30:25.883Z,37.54
2023-03-18T03:32:55.565Z,37.54
2023-03-18T03:35:25.240Z,37.62
2023-03-18T03:37:54.703Z,37.59
2023-03-18T03:40:24.610Z,37.61
2023-03-18T03:42:53.576Z,37.58
2023-03-18T03:45:22.561Z,37.60
2023-03-18T03:47:51.978Z,37.70
2023-03-18T03:50:21.594Z,37.91
2023-03-18T03:52:50.725Z,37.85
2023-03-18T03:55:21.853Z,37.87
2023-03-18T03:57:51.349Z,37.63
2023-03-18T04:00:22.540Z,37.69
2023-03-18T04:02:53.651Z,37.90
2023-03-18T04:05:24.430Z,37.81
2023-03-18T04:07:54.784Z,37.78
2023-03-18T04:10:23.775Z,37.76
2023-03-18T04:12:53.793Z,37.77
2023-03-18T04:15:23.085Z,37.80
2023-03-18T04:17:52.206Z,37.92
2023-03-18T04:20:21.266Z,37.91
2023-03-18T04:22:50.283Z,37.87
2023-03-18T04:25:20.249Z,37.95
2023-03-18T04:27:51.977Z,37.85
2023-03-18T04:30:22.783Z,37.66
2023-03-18T04:32:52.139Z,37.64
2023-03-18T04:35:22.732Z,37.85
2023-03-18T04:37:51.944Z,37.66
2023-03-18T04:40:21.170Z,37.77
2023-03-18T04:42:50.488Z,37.78
2023-03-18T04:45:19.753Z,37.86
2023-03-18T04:47:48.880Z,37.94
2023-03-18T04:50:18.644Z,37.89
2023-03-18T04:52:48.475Z,37.65
2023-03-18T04:55:20.033Z,37.64
2023-03-18T04:57:50.035Z,37.69
2023-03-18T05:00:21.770Z,37.60
2023-03-18T05:02:50.989Z,37.54
2023-03-18T05:05:20.689Z,37.50
2023-03-18T05:07:49.692Z,37.53
2023-03-18T05:10:18.879Z,37.39
2023-03-18T05:12:48.451Z,37.51
2023-03-18T05:15:17.743Z,37.35
2023-03-18T05:17:46.967Z,37.39
2023-03-18T05:20:16.178Z,37.25
2023-03-18T05:22:45.240Z,37.10
2023-03-18T05:25:14.268Z,36.93
2023-03-18T05:27:43.257Z,36.83
2023-03-18T05:30:14.883Z,36.82
2023-03-18T05:32:44.313Z,36.67
2023-03-18T05:35:13.764Z,36.83
2023-03-18T05:37:43.218Z,36.61
2023-03-18T05:40:14.120Z,36.81
2023-03-18T05:42:55.468Z,36.65
2023-03-18T05:45:25.792Z,36.55
2023-03-18T05:47:55.076Z,36.49
2023-03-18T05:50:32.125Z,36.32
2023-03-18T05:53:01.255Z,36.26
2023-03-18T05:55:31.752Z,36.11
2023-03-18T05:58:02.450Z,36.13
2023-03-18T06:00:32.049Z,36.04
2023-03-18T06:03:02.305Z,36.07
2023-03-18T06:05:32.445Z,35.95
2023-03-18T06:08:03.013Z,36.04
2023-03-18T06:10:32.978Z,35.81
2023-03-18T06:13:01.988Z,35.86
2023-03-18T06:15:31.685Z,35.88
2023-03-18T06:18:01.207Z,35.93
2023-03-18T06:20:30.626Z,35.65
2023-03-18T06:22:59.730Z,35.69
2023-03-18T06:25:28.902Z,35.95
2023-03-18T06:27:58.302Z,36.12
2023-03-18T06:30:27.374Z,35.79
2023-03-18T06:32:56.820Z,35.91
2023-03-18T06:35:27.649Z,35.83
2023-03-18T06:37:57.078Z,35.63
2023-03-18T06:40:26.146Z,35.63
2023-03-18T06:42:55.429Z,35.69
2023-03-18T06:45:25.062Z,35.71
2023-03-18T06:47:54.020Z,35.83
2023-03-18T06:50:23.847Z,35.63
2023-03-18T06:52:53.068Z,35.52
2023-03-18T06:55:22.215Z,35.49
2023-03-18T06:57:51.980Z,35.51
2023-03-18T07:00:24.190Z,35.54
2023-03-18T07:02:53.537Z,35.47
2023-03-18T07:05:23.355Z,35.68
2023-03-18T07:07:52.350Z,35.55
2023-03-18T07:10:23.832Z,35.54
2023-03-18T07:12:53.311Z,35.76
2023-03-18T07:15:23.854Z,35.65
2023-03-18T07:17:53.323Z,35.66
2023-03-18T07:20:23.555Z,35.49
2023-03-18T07:22:52.859Z,35.72
2023-03-18T07:25:23.084Z,35.57
2023-03-18T07:27:52.784Z,35.87
2023-03-18T07:30:22.476Z,35.95
2023-03-18T07:32:51.391Z,36.02
2023-03-18T07:35:22.002Z,35.77
2023-03-18T07:37:50.970Z,35.44
2023-03-18T07:40:20.222Z,35.70
2023-03-18T07:42:51.059Z,35.66
2023-03-18T07:45:20.169Z,34.86
2023-03-18T07:47:49.248Z,34.93
2023-03-18T07:50:18.742Z,34.52
2023-03-18T07:52:48.047Z,34.99
2023-03-18T07:55:17.530Z,34.96
2023-03-18T07:57:47.237Z,34.91
2023-03-18T08:00:18.201Z,34.62
2023-03-18T08:02:47.356Z,34.61
2023-03-18T08:05:16.490Z,34.21
2023-03-18T08:07:46.305Z,34.22
2023-03-18T08:10:15.543Z,34.46
2023-03-18T08:12:52.497Z,34.79
2023-03-18T08:15:22.975Z,34.72
2023-03-18T08:17:53.201Z,34.29
2023-03-18T08:20:22.608Z,34.31
2023-03-18T08:22:51.841Z,34.53
2023-03-18T08:25:23.125Z,34.28
2023-03-18T08:27:53.289Z,34.00
2023-03-18T08:30:24.700Z,34.30
2023-03-18T08:32:53.854Z,34.23
2023-03-18T08:35:23.240Z,33.77
2023-03-18T08:37:52.559Z,33.73
2023-03-18T08:40:21.836Z,34.06
2023-03-18T08:42:51.799Z,33.92
2023-03-18T08:45:21.250Z,33.85
2023-03-18T08:47:50.327Z,33.71
2023-03-18T08:50:20.274Z,33.38
2023-03-18T08:52:49.965Z,33.50
2023-03-18T08:55:20.946Z,33.15
2023-03-18T08:57:50.078Z,33.32
2023-03-18T09:00:21.851Z,33.20
2023-03-18T09:02:50.925Z,33.11
2023-03-18T09:05:20.017Z,32.83
2023-03-18T09:07:49.364Z,33.02
2023-03-18T09:10:19.121Z,33.32
2023-03-18T09:12:49.472Z,33.41
2023-03-18T09:15:20.351Z,33.44
2023-03-18T09:18:07.934Z,33.40
2023-03-18T09:20:38.805Z,33.40
2023-03-18T09:23:08.467Z,33.29
2023-03-18T09:25:37.677Z,32.59
2023-03-18T09:28:07.143Z,32.88
2023-03-18T09:30:36.231Z,32.29
2023-03-18T09:33:06.330Z,32.07
2023-03-18T09:35:36.165Z,32.66
2023-03-18T09:38:06.775Z,33.02
2023-03-18T09:40:40.026Z,32.98
2023-03-18T09:43:25.050Z,32.79
2023-03-18T09:46:06.352Z,32.89
2023-03-18T09:48:52.335Z,32.46
2023-03-18T09:51:34.529Z,32.17
2023-03-18T09:54:09.027Z,32.12
2023-03-18T09:56:39.570Z,32.42
2023-03-18T09:59:20.905Z,32.31
2023-03-18T10:01:54.058Z,32.29
2023-03-18T10:04:26.814Z,32.08
2023-03-18T10:07:03.613Z,32.12
2023-03-18T10:09:40.446Z,31.75
2023-03-18T10:12:16.758Z,31.94
2023-03-18T10:14:50.442Z,31.97
2023-03-18T10:17:23.419Z,32.03
2023-03-18T10:19:56.000Z,31.38
2023-03-18T10:23:02.987Z,31.16
2023-03-18T10:25:38.357Z,31.49
2023-03-18T10:28:36.824Z,31.41
2023-03-18T10:31:21.919Z,31.37
2023-03-18T10:33:58.785Z,31.33
2023-03-18T10:36:38.109Z,31.53
2023-03-18T10:39:13.563Z,31.07
2023-03-18T10:41:44.593Z,31.34
2023-03-18T10:44:20.213Z,31.28
2023-03-18T10:46:57.934Z,31.29
2023-03-18T10:49:30.699Z,31.11
2023-03-18T10:52:07.164Z,30.99
2023-03-18T10:54:40.696Z,30.97
2023-03-18T10:57:14.408Z,30.83
2023-03-18T10:59:44.818Z,30.97
2023-03-18T11:02:20.251Z,30.78
2023-03-18T11:04:50.037Z,30.60
2023-03-18T11:07:23.276Z,30.75
2023-03-18T11:09:53.239Z,30.84
2023-03-18T11:12:27.897Z,30.72
2023-03-18T11:14:57.440Z,30.47
2023-03-18T11:17:31.287Z,30.48
2023-03-18T11:20:07.466Z,30.41
2023-03-18T11:22:37.981Z,30.27
2023-03-18T11:25:15.899Z,30.34
2023-03-18T11:27:46.804Z,30.27
2023-03-18T11:30:34.144Z,30.32
2023-03-18T11:33:13.755Z,30.04
2023-03-18T11:35:46.745Z,30.16
2023-03-18T11:38:18.154Z,30.08
2023-03-18T11:40:47.265Z,30.08
2023-03-18T11:43:19.816Z,30.13
2023-03-18T11:45:53.257Z,30.17
2023-03-18T11:48:30.530Z,30.19
2023-03-18T11:51:13.112Z,30.17
2023-03-18T11:53:55.668Z,30.27
2023-03-18T11:56:34.317Z,30.37
2023-03-18T11:59:21.067Z,30.44
2023-03-18T12:02:01.892Z,30.42
2023-03-18T12:04:46.472Z,30.50
2023-03-18T12:07:34.779Z,30.59
2023-03-18T12:10:15.687Z,30.73
2023-03-18T12:12:59.042Z,30.86
2023-03-18T12:15:42.166Z,31.08
2023-03-18T12:18:23.260Z,31.13
2023-03-18T12:20:53.964Z,31.19
2023-03-18T12:23:37.412Z,31.26
2023-03-18T12:26:12.362Z,31.37
2023-03-18T12:28:56.593Z,31.53
2023-03-18T12:31:53.654Z,31.39
2023-03-18T12:34:37.722Z,31.59
2023-03-18T12:37:21.610Z,31.89
2023-03-18T12:40:12.030Z,31.91
2023-03-18T12:42:55.243Z,31.98
2023-03-18T12:45:31.234Z,32.07
2023-03-18T12:48:04.856Z,32.25
2023-03-18T12:50:38.119Z,32.58
2023-03-18T12:53:16.547Z,32.96
2023-03-18T12:55:49.491Z,33.13
2023-03-18T12:58:23.123Z,33.12
2023-03-18T13:00:59.245Z,33.22
2023-03-18T13:03:34.312Z,33.11
2023-03-18T13:06:09.689Z,33.17
2023-03-18T13:08:59.713Z,33.17
2023-03-18T13:12:04.183Z,33.39
2023-03-18T13:14:49.053Z,33.47
2023-03-18T13:17:24.183Z,33.52
2023-03-18T13:19:53.490Z,33.72
2023-03-18T13:22:48.884Z,33.72
2023-03-18T13:25:29.265Z,33.86
2023-03-18T13:28:23.037Z,33.78
2023-03-18T13:31:06.737Z,33.85
2023-03-18T13:34:10.145Z,33.98
2023-03-18T13:37:11.914Z,33.98
2023-03-18T13:39:56.223Z,34.08
2023-03-18T13:42:28.099Z,34.34
2023-03-18T13:45:10.191Z,34.40
2023-03-18T13:47:40.655Z,34.58
2023-03-18T13:50:31.702Z,34.58
2023-03-18T13:53:02.759Z,34.46
2023-03-18T13:55:34.590Z,34.45
2023-03-18T13:58:20.647Z,34.45
2023-03-18T14:01:26.508Z,34.32
2023-03-18T14:03:58.961Z,34.54
2023-03-18T14:06:51.234Z,34.84
2023-03-18T14:09:46.704Z,35.07
2023-03-18T14:12:37.785Z,35.24
2023-03-18T14:15:36.626Z,35.46
2023-03-18T14:18:25.940Z,35.60
2023-03-18T14:21:02.050Z,35.55
2023-03-18T14:23:38.408Z,35.46
2023-03-18T14:26:17.736Z,35.71
2023-03-18T14:28:50.107Z,35.54
2023-03-18T14:31:33.691Z,35.59
2023-03-18T14:34:33.135Z,35.52
2023-03-18T14:37:26.230Z,35.69
2023-03-18T14:39:59.759Z,35.63
2023-03-18T14:42:43.354Z,35.60
2023-03-18T14:45:19.435Z,35.70
2023-03-18T14:47:50.780Z,35.65
2023-03-18T14:50:28.874Z,35.69
2023-03-18T14:53:04.483Z,35.85
2023-03-18T14:55:36.346Z,35.72
2023-03-18T14:58:06.520Z,35.82
2023-03-18T15:00:36.755Z,35.99
2023-03-18T15:03:08.896Z,35.92
2023-03-18T15:05:40.469Z,36.10
2023-03-18T15:08:15.859Z,36.14
2023-03-18T15:10:48.942Z,36.11
2023-03-18T15:13:19.183Z,36.24
2023-03-18T15:15:48.341Z,36.17
2023-03-18T15:18:24.387Z,36.20
2023-03-18T15:20:55.524Z,36.27
2023-03-18T15:23:31.566Z,36.40
2023-03-18T15:26:03.528Z,36.53
2023-03-18T15:28:33.553Z,36.51
2023-03-18T15:31:05.077Z,36.62
2023-03-18T15:33:37.669Z,36.59
2023-03-18T15:36:14.194Z,36.56
2023-03-18T15:38:48.722Z,36.64
2023-03-18T15:41:21.245Z,36.63
2023-03-18T15:43:51.988Z,36.75
2023-03-18T15:46:27.502Z,36.71
2023-03-18T15:48:57.781Z,36.83
2023-03-18T15:51:30.345Z,36.80
2023-03-18T15:54:05.264Z,36.99
2023-03-18T15:56:43.281Z,37.08
2023-03-18T15:59:17.040Z,37.03
2023-03-18T16:01:47.143Z,36.94
2023-03-18T16:04:17.761Z,36.98
2023-03-18T16:06:47.325Z,37.07
2023-03-18T16:09:18.725Z,37.06
2023-03-18T16:11:50.855Z,37.13
2023-03-18T16:14:22.056Z,37.38
2023-03-18T16:16:51.026Z,37.34
2023-03-18T16:19:24.665Z,37.32
2023-03-18T16:21:54.040Z,37.43
2023-03-18T16:24:24.397Z,37.43
2023-03-18T16:26:55.111Z,37.59
2023-03-18T16:29:30.227Z,37.55
2023-03-18T16:32:00.199Z,37.79
2023-03-18T16:34:29.138Z,37.86
2023-03-18T16:36:58.050Z,37.81
2023-03-18T16:39:33.493Z,37.91
2023-03-18T16:42:03.748Z,38.06
2023-03-18T16:44:35.038Z,37.95
2023-03-18T16:47:04.244Z,38.13
2023-03-18T16:49:36.697Z,38.17
2023-03-18T16:52:06.221Z,38.24
2023-03-18T16:54:35.333Z,38.39
2023-03-18T16:57:06.390Z,38.47
2023-03-18T16:59:38.049Z,38.58
2023-03-18T17:02:25.608Z,38.68
2023-03-18T17:04:54.694Z,38.86
2023-03-18T17:07:23.709Z,38.97
2023-03-18T17:09:52.981Z,39.00
2023-03-18T17:12:22.998Z,39.08
2023-03-18T17:14:54.942Z,39.25
2023-03-18T17:17:28.051Z,39.34
2023-03-18T17:19:59.196Z,39.41
2023-03-18T17:22:30.077Z,39.53
2023-03-18T17:25:00.070Z,39.55
2023-03-18T17:27:32.405Z,39.64
2023-03-18T17:30:01.469Z,39.67
2023-03-18T17:32:30.705Z,39.69
2023-03-18T17:35:00.200Z,39.87
2023-03-18T17:37:29.197Z,39.92
2023-03-18T17:39:58.137Z,40.04
2023-03-18T17:42:31.903Z,40.17
2023-03-18T17:45:05.913Z,40.16
2023-03-18T17:47:36.223Z,40.31
2023-03-18T17:50:06.078Z,40.44
2023-03-18T17:52:35.155Z,40.34
2023-03-18T17:55:13.527Z,40.50
2023-03-18T17:57:42.556Z,40.51
2023-03-18T18:00:20.790Z,40.60
2023-03-18T18:02:50.336Z,40.66
2023-03-18T18:05:21.295Z,40.61
2023-03-18T18:07:52.559Z,40.67
2023-03-18T18:10:21.593Z,40.74
2023-03-18T18:12:50.616Z,40.76
2023-03-18T18:15:24.893Z,40.84
2023-03-18T18:17:55.066Z,40.88
2023-03-18T18:20:24.104Z,40.99
2023-03-18T18:22:55.542Z,40.99
2023-03-18T18:25:29.617Z,41.11
2023-03-18T18:27:58.827Z,41.24
2023-03-18T18:30:27.956Z,41.31
2023-03-18T18:32:57.083Z,41.39
2023-03-18T18:35:26.424Z,41.38
2023-03-18T18:37:55.268Z,41.45
2023-03-18T18:40:24.332Z,41.46
2023-03-18T18:42:53.304Z,41.60
2023-03-18T18:45:22.913Z,41.57
2023-03-18T18:47:51.827Z,41.68
2023-03-18T18:50:26.411Z,41.71
2023-03-18T18:52:57.705Z,41.78
2023-03-18T18:55:26.770Z,41.81
2023-03-18T18:57:56.568Z,41.85
2023-03-18T19:00:25.714Z,41.93
2023-03-18T19:02:56.708Z,42.02
2023-03-18T19:05:27.842Z,41.99
2023-03-18T19:07:57.494Z,41.92
2023-03-18T19:10:26.729Z,42.03
2023-03-18T19:12:56.056Z,42.01
2023-03-18T19:15:25.194Z,41.91
2023-03-18T19:17:54.196Z,42.04
2023-03-18T19:20:32.873Z,42.04
2023-03-18T19:23:02.611Z,42.13
2023-03-18T19:25:31.835Z,42.12
2023-03-18T19:28:01.363Z,42.24
2023-03-18T19:30:30.675Z,42.20
2023-03-18T19:33:01.712Z,42.27
2023-03-18T19:35:30.588Z,42.23
2023-03-18T19:37:59.627Z,42.32
2023-03-18T19:40:31.271Z,42.36
2023-03-18T19:43:01.286Z,42.33
2023-03-18T19:45:30.374Z,42.38
2023-03-18T19:47:59.284Z,42.41
2023-03-18T19:50:28.271Z,42.49
2023-03-18T19:52:58.568Z,42.53
2023-03-18T19:55:28.182Z,42.57
2023-03-18T19:57:57.599Z,42.63
2023-03-18T20:00:27.400Z,42.60
2023-03-18T20:02:57.749Z,42.67
2023-03-18T20:05:27.062Z,42.78
2023-03-18T20:07:56.095Z,42.80
2023-03-18T20:10:25.527Z,42.75
2023-03-18T20:12:54.494Z,42.81
2023-03-18T20:15:26.442Z,42.84
2023-03-18T20:17:56.106Z,42.88
2023-03-18T20:20:26.918Z,42.96
2023-03-18T20:22:59.110Z,43.09
2023-03-18T20:25:32.130Z,43.04
2023-03-18T20:28:01.717Z,43.06
2023-03-18T20:30:33.702Z,43.03
2023-03-18T20:33:03.784Z,42.99
2023-03-18T20:35:35.260Z,43.04
2023-03-18T20:38:13.023Z,43.13
2023-03-18T20:40:43.538Z,43.25
2023-03-18T20:43:15.363Z,43.14
2023-03-18T20:45:44.396Z,43.30
2023-03-18T20:48:13.837Z,43.18
2023-03-18T20:50:42.805Z,43.28
2023-03-18T20:53:16.791Z,43.27
2023-03-18T20:55:46.344Z,43.29
2023-03-18T20:58:17.617Z,43.37
2023-03-18T21:00:47.024Z,43.41
2023-03-18T21:03:24.074Z,43.48
2023-03-18T21:05:56.227Z,43.59
2023-03-18T21:08:26.214Z,43.67
2023-03-18T21:10:56.651Z,43.84
2023-03-18T21:13:29.691Z,43.73
2023-03-18T21:16:00.171Z,43.86
2023-03-18T21:18:29.486Z,43.84
2023-03-18T21:21:00.508Z,43.97
2023-03-18T21:23:31.572Z,44.01
2023-03-18T21:26:01.381Z,44.10
2023-03-18T21:28:31.147Z,44.07
2023-03-18T21:31:02.021Z,44.16
2023-03-18T21:33:33.215Z,44.22
2023-03-18T21:36:02.966Z,44.29
2023-03-18T21:38:34.327Z,44.23
2023-03-18T21:41:03.985Z,44.30
2023-03-18T21:43:35.436Z,44.33
2023-03-18T21:46:06.970Z,44.46
2023-03-18T21:48:36.035Z,44.54
2023-03-18T21:51:06.254Z,44.63
2023-03-18T21:53:35.230Z,44.59
2023-03-18T21:56:04.432Z,44.61
2023-03-18T21:58:33.420Z,44.76
2023-03-18T22:01:03.303Z,44.66
2023-03-18T22:03:32.814Z,44.66
2023-03-18T22:06:01.837Z,44.84
2023-03-18T22:08:30.787Z,44.79
2023-03-18T22:10:59.659Z,44.87
2023-03-18T22:13:28.570Z,45.04
2023-03-18T22:15:57.979Z,45.01
2023-03-18T22:18:26.968Z,45.04
2023-03-18T22:20:57.509Z,45.02
2023-03-18T22:23:30.531Z,45.20
2023-03-18T22:25:59.745Z,45.26
2023-03-18T22:28:28.796Z,45.42
2023-03-18T22:30:57.844Z,45.44
2023-03-18T22:33:30.699Z,45.47
2023-03-18T22:36:00.201Z,45.34
2023-03-18T22:38:31.265Z,45.52
2023-03-18T22:41:00.491Z,45.47
2023-03-18T22:43:33.046Z,45.56
2023-03-18T22:46:04.594Z,45.70
2023-03-18T22:48:34.002Z,45.75
2023-03-18T22:51:03.528Z,45.75
2023-03-18T22:53:35.532Z,46.00
2023-03-18T22:56:10.006Z,45.97
2023-03-18T22:58:39.280Z,45.99
2023-03-18T23:01:09.462Z,46.00
2023-03-18T23:03:39.737Z,46.23
2023-03-18T23:06:13.594Z,46.18
2023-03-18T23:08:43.047Z,46.28
2023-03-18T23:11:13.050Z,46.33
2023-03-18T23:13:43.569Z,46.34
2023-03-18T23:16:17.360Z,46.59
2023-03-18T23:18:46.578Z,46.46
2023-03-18T23:21:19.145Z,46.68
2023-03-18T23:23:48.274Z,46.78
2023-03-18T23:26:17.342Z,46.74
2023-03-18T23:28:46.424Z,46.73
2023-03-18T23:31:16.832Z,46.89
2023-03-18T23:33:46.588Z,46.87
2023-03-18T23:36:15.522Z,47.01
2023-03-18T23:38:44.758Z,47.06
2023-03-18T23:41:13.804Z,47.08
2023-03-18T23:43:42.829Z,47.21
2023-03-18T23:46:11.903Z,47.13
2023-03-18T23:48:40.937Z,47.23
2023-03-18T23:51:09.910Z,47.17
2023-03-18T23:53:38.798Z,47.20
2023-03-18T23:56:08.722Z,47.29
2023-03-18T23:58:37.774Z,47.38
